Time,TemperatureF,DewpointF,PressureIn,WindDirection,WindDirectionDegrees,WindSpeedMPH,WindSpeedGustMPH,Humidity,HourlyPrecipIn,Conditions,Clouds,dailyrainin,SolarRadiationWatts/m^2,SoftwareType,DateUTC
2013-01-08 00:02:00,49.0,40.0,-100.00,East,100,5.0,9.0,70,0.00,,,0.00,0.000000,,2013-01-08 06:02:00,
2013-01-08 00:22:00,49.0,39.0,-100.00,SSE,147,3.0,9.0,69,0.00,,,0.00,0.000000,,2013-01-08 06:22:00,
2013-01-08 00:33:00,49.0,39.0,-100.00,SSE,147,3.0,9.0,69,0.00,,,0.00,0.000000,,2013-01-08 06:33:00,
2013-01-08 00:43:00,49.0,39.0,-100.00,SSE,147,3.0,9.0,69,0.00,,,0.00,0.000000,,2013-01-08 06:43:00,
2013-01-08 00:53:00,49.0,39.0,-100.00,SSE,147,3.0,9.0,69,0.00,,,0.00,0.000000,,2013-01-08 06:53:00,
2013-01-08 01:02:00,49.0,39.0,-100.00,SSE,147,3.0,9.0,69,0.00,,,0.00,0.000000,,2013-01-08 07:02:00,
2013-01-08 01:32:00,47.0,40.0,-100.00,NW,316,1.0,4.0,77,0.00,,,0.00,0.000000,,2013-01-08 07:32:00,
2013-01-08 01:42:00,47.0,40.0,-100.00,NW,316,1.0,4.0,77,0.00,,,0.00,0.000000,,2013-01-08 07:42:00,
2013-01-08 01:52:00,47.0,40.0,-100.00,NW,316,1.0,4.0,77,0.00,,,0.00,0.000000,,2013-01-08 07:52:00,
2013-01-08 02:02:00,47.0,40.0,-100.00,NW,316,1.0,4.0,77,0.00,,,0.00,0.000000,,2013-01-08 08:02:00,
2013-01-08 02:22:00,48.0,40.0,-100.00,ENE,59,3.0,5.0,75,0.00,,,0.00,0.000000,,2013-01-08 08:22:00,
2013-01-08 02:32:00,48.0,40.0,-100.00,ENE,59,3.0,5.0,75,0.00,,,0.00,0.000000,,2013-01-08 08:32:00,
2013-01-08 02:42:00,48.0,40.0,-100.00,ENE,59,3.0,5.0,75,0.00,,,0.00,0.000000,,2013-01-08 08:42:00,
2013-01-08 02:53:00,48.0,40.0,-100.00,ENE,59,3.0,5.0,75,0.00,,,0.00,0.000000,,2013-01-08 08:53:00,
2013-01-08 03:02:00,48.0,40.0,-100.00,ENE,59,3.0,5.0,75,0.00,,,0.00,0.000000,,2013-01-08 09:02:00,
2013-01-08 03:22:00,48.0,40.0,-100.00,ENE,65,3.0,7.0,74,0.01,,,0.01,0.000000,,2013-01-08 09:22:00,
2013-01-08 03:33:00,48.0,40.0,-100.00,ENE,65,3.0,7.0,74,0.01,,,0.01,0.000000,,2013-01-08 09:33:00,
2013-01-08 03:42:00,48.0,40.0,-100.00,ENE,65,3.0,7.0,74,0.01,,,0.01,0.000000,,2013-01-08 09:42:00,
2013-01-08 03:52:00,48.0,40.0,-100.00,ENE,65,3.0,7.0,74,0.01,,,0.01,0.000000,,2013-01-08 09:52:00,
2013-01-08 04:02:00,48.0,40.0,-100.00,ENE,65,3.0,7.0,74,0.01,,,0.01,0.000000,,2013-01-08 10:02:00,
2013-01-08 04:33:00,47.0,43.0,-100.00,NE,55,4.0,6.0,86,0.01,,,0.02,0.000000,,2013-01-08 10:33:00,
2013-01-08 04:42:00,47.0,43.0,-100.00,NE,55,4.0,6.0,86,0.01,,,0.02,0.000000,,2013-01-08 10:42:00,
2013-01-08 04:52:00,47.0,43.0,-100.00,NE,55,4.0,6.0,86,0.01,,,0.02,0.000000,,2013-01-08 10:52:00,
2013-01-08 05:02:00,47.0,43.0,-100.00,NE,55,4.0,6.0,86,0.01,,,0.02,0.000000,,2013-01-08 11:02:00,
2013-01-08 05:33:00,47.0,43.0,-100.00,NE,37,3.0,6.0,85,0.00,,,0.02,0.000000,,2013-01-08 11:33:00,
2013-01-08 05:42:00,47.0,43.0,-100.00,NE,37,3.0,6.0,85,0.00,,,0.02,0.000000,,2013-01-08 11:42:00,
2013-01-08 05:53:00,47.0,43.0,-100.00,NE,37,3.0,6.0,85,0.00,,,0.02,0.000000,,2013-01-08 11:53:00,
2013-01-08 06:02:00,47.0,43.0,-100.00,NE,37,3.0,6.0,85,0.00,,,0.02,0.000000,,2013-01-08 12:02:00,
2013-01-08 06:03:00,48.0,43.0,-100.00,ENE,59,3.0,7.0,83,0.00,,,0.02,0.000000,,2013-01-08 12:03:00,
2013-01-08 06:33:00,48.0,43.0,-100.00,ENE,59,3.0,7.0,83,0.00,,,0.02,0.000000,,2013-01-08 12:33:00,
2013-01-08 06:43:00,48.0,43.0,-100.00,ENE,59,3.0,7.0,83,0.00,,,0.02,0.000000,,2013-01-08 12:43:00,
2013-01-08 06:53:00,48.0,43.0,-100.00,ENE,59,3.0,7.0,83,0.00,,,0.02,0.000000,,2013-01-08 12:53:00,
2013-01-08 07:33:00,50.0,44.0,-100.00,East,90,6.0,10.0,81,0.00,,,0.02,0.000000,,2013-01-08 13:33:00,
2013-01-08 07:43:00,50.0,44.0,-100.00,East,90,6.0,10.0,81,0.00,,,0.02,0.000000,,2013-01-08 13:43:00,
2013-01-08 07:53:00,50.0,44.0,-100.00,East,90,6.0,10.0,81,0.00,,,0.02,0.000000,,2013-01-08 13:53:00,
2013-01-08 08:02:00,50.0,44.0,-100.00,East,90,6.0,10.0,81,0.00,,,0.02,0.000000,,2013-01-08 14:02:00,
2013-01-08 08:33:00,50.0,44.0,-100.00,East,96,7.0,13.0,81,0.00,,,0.02,1.000000,,2013-01-08 14:33:00,
2013-01-08 08:43:00,50.0,44.0,-100.00,East,96,7.0,13.0,81,0.00,,,0.02,1.000000,,2013-01-08 14:43:00,
2013-01-08 08:53:00,50.0,44.0,-100.00,East,96,7.0,13.0,81,0.00,,,0.02,1.000000,,2013-01-08 14:53:00,
2013-01-08 09:02:00,50.0,44.0,-100.00,East,96,7.0,13.0,81,0.00,,,0.02,1.000000,,2013-01-08 15:02:00,
2013-01-08 09:03:00,50.0,45.0,-100.00,East,96,5.0,10.0,84,0.01,,,0.03,10.000000,,2013-01-08 15:03:00,
2013-01-08 09:23:00,50.0,45.0,-100.00,East,96,5.0,10.0,84,0.01,,,0.03,10.000000,,2013-01-08 15:23:00,
2013-01-08 09:33:00,50.0,45.0,-100.00,East,96,5.0,10.0,84,0.01,,,0.03,10.000000,,2013-01-08 15:33:00,
2013-01-08 09:43:00,50.0,45.0,-100.00,East,96,5.0,10.0,84,0.01,,,0.03,10.000000,,2013-01-08 15:43:00,
2013-01-08 09:53:00,50.0,45.0,-100.00,East,96,5.0,10.0,84,0.01,,,0.03,10.000000,,2013-01-08 15:53:00,
2013-01-08 10:03:00,50.0,48.0,-100.00,SSE,161,5.0,9.0,93,0.14,,,0.17,26.000000,,2013-01-08 16:03:00,
2013-01-08 10:34:00,50.0,48.0,-100.00,SSE,161,5.0,9.0,93,0.14,,,0.17,26.000000,,2013-01-08 16:34:00,
2013-01-08 10:43:00,50.0,48.0,-100.00,SSE,161,5.0,9.0,93,0.14,,,0.17,26.000000,,2013-01-08 16:43:00,
2013-01-08 10:53:00,50.0,48.0,-100.00,SSE,161,5.0,9.0,93,0.14,,,0.17,26.000000,,2013-01-08 16:53:00,
2013-01-08 11:03:00,53.0,52.0,-100.00,ENE,72,4.0,8.0,96,0.05,,,0.22,101.000000,,2013-01-08 17:03:00,
2013-01-08 11:34:00,53.0,52.0,-100.00,ENE,72,4.0,8.0,96,0.05,,,0.22,101.000000,,2013-01-08 17:34:00,
2013-01-08 11:43:00,53.0,52.0,-100.00,ENE,72,4.0,8.0,96,0.05,,,0.22,101.000000,,2013-01-08 17:43:00,
2013-01-08 11:54:00,53.0,52.0,-100.00,ENE,72,4.0,8.0,96,0.05,,,0.22,101.000000,,2013-01-08 17:54:00,
2013-01-08 12:03:00,58.0,57.0,-100.00,ESE,122,7.0,10.0,95,0.01,,,0.23,161.000000,,2013-01-08 18:03:00,
2013-01-08 12:24:00,58.0,57.0,-100.00,ESE,122,7.0,10.0,95,0.01,,,0.23,161.000000,,2013-01-08 18:24:00,
2013-01-08 12:33:00,58.0,57.0,-100.00,ESE,122,7.0,10.0,95,0.01,,,0.23,161.000000,,2013-01-08 18:33:00,
2013-01-08 12:43:00,58.0,57.0,-100.00,ESE,122,7.0,10.0,95,0.01,,,0.23,161.000000,,2013-01-08 18:43:00,
2013-01-08 12:53:00,58.0,57.0,-100.00,ESE,122,7.0,10.0,95,0.01,,,0.23,161.000000,,2013-01-08 18:53:00,
2013-01-08 13:03:00,60.0,59.0,-100.00,ESE,114,8.0,12.0,96,0.06,,,0.29,54.000000,,2013-01-08 19:03:00,
2013-01-08 13:33:00,60.0,59.0,-100.00,ESE,114,8.0,12.0,96,0.06,,,0.29,54.000000,,2013-01-08 19:33:00,
2013-01-08 13:43:00,60.0,59.0,-100.00,ESE,114,8.0,12.0,96,0.06,,,0.29,54.000000,,2013-01-08 19:43:00,
2013-01-08 13:53:00,60.0,59.0,-100.00,ESE,114,8.0,12.0,96,0.06,,,0.29,54.000000,,2013-01-08 19:53:00,
2013-01-08 14:03:00,60.0,59.0,-100.00,SE,141,6.0,12.0,95,0.37,,,0.66,25.000000,,2013-01-08 20:03:00,
2013-01-08 14:23:00,60.0,59.0,-100.00,SE,141,6.0,12.0,95,0.37,,,0.66,25.000000,,2013-01-08 20:23:00,
2013-01-08 14:33:00,60.0,59.0,-100.00,SE,141,6.0,12.0,95,0.37,,,0.66,25.000000,,2013-01-08 20:33:00,
2013-01-08 14:43:00,60.0,59.0,-100.00,SE,141,6.0,12.0,95,0.37,,,0.66,25.000000,,2013-01-08 20:43:00,
2013-01-08 14:53:00,60.0,59.0,-100.00,SE,141,6.0,12.0,95,0.37,,,0.66,25.000000,,2013-01-08 20:53:00,
2013-01-08 15:03:00,59.0,57.0,-100.00,SE,129,4.0,12.0,94,0.01,,,0.67,17.000000,,2013-01-08 21:03:00,
2013-01-08 15:33:00,59.0,57.0,-100.00,SE,129,4.0,12.0,94,0.01,,,0.67,17.000000,,2013-01-08 21:33:00,
2013-01-08 15:43:00,59.0,57.0,-100.00,SE,129,4.0,12.0,94,0.01,,,0.67,17.000000,,2013-01-08 21:43:00,
2013-01-08 15:53:00,59.0,57.0,-100.00,SE,129,4.0,12.0,94,0.01,,,0.67,17.000000,,2013-01-08 21:53:00,
2013-01-08 16:33:00,58.0,57.0,-100.00,ESE,104,3.0,10.0,95,0.02,,,0.69,23.000000,,2013-01-08 22:33:00,
2013-01-08 16:43:00,58.0,57.0,-100.00,ESE,104,3.0,10.0,95,0.02,,,0.69,23.000000,,2013-01-08 22:43:00,
2013-01-08 16:53:00,58.0,57.0,-100.00,ESE,104,3.0,10.0,95,0.02,,,0.69,23.000000,,2013-01-08 22:53:00,
2013-01-08 17:02:00,58.0,57.0,-100.00,ESE,104,3.0,10.0,95,0.02,,,0.69,23.000000,,2013-01-08 23:02:00,
2013-01-08 17:33:00,58.0,57.0,-100.00,NNE,21,3.0,9.0,97,0.34,,,1.03,4.000000,,2013-01-08 23:33:00,
2013-01-08 17:43:00,58.0,57.0,-100.00,NNE,21,3.0,9.0,97,0.34,,,1.03,4.000000,,2013-01-08 23:43:00,
2013-01-08 17:53:00,58.0,57.0,-100.00,NNE,21,3.0,9.0,97,0.34,,,1.03,4.000000,,2013-01-08 23:53:00,
2013-01-08 18:02:00,58.0,57.0,-100.00,NNE,21,3.0,9.0,97,0.34,,,1.03,4.000000,,2013-01-09 00:02:00,
2013-01-08 19:33:00,58.0,57.0,-100.00,ENE,70,5.0,10.0,98,-99.99,,,1.03,0.000000,,2013-01-09 01:33:00,
2013-01-08 19:42:00,58.0,57.0,-100.00,ENE,70,5.0,10.0,98,-99.99,,,1.03,0.000000,,2013-01-09 01:42:00,
2013-01-08 19:52:00,58.0,57.0,-100.00,ENE,70,5.0,10.0,98,-99.99,,,1.03,0.000000,,2013-01-09 01:52:00,
2013-01-08 20:02:00,58.0,57.0,-100.00,ENE,70,5.0,10.0,98,-99.99,,,1.03,0.000000,,2013-01-09 02:02:00,
2013-01-08 20:03:00,58.0,57.0,-100.00,East,82,4.0,11.0,98,0.00,,,1.03,0.000000,,2013-01-09 02:03:00,
2013-01-08 20:33:00,58.0,57.0,-100.00,East,82,4.0,11.0,98,0.00,,,1.03,0.000000,,2013-01-09 02:33:00,
2013-01-08 20:43:00,58.0,57.0,-100.00,East,82,4.0,11.0,98,0.00,,,1.03,0.000000,,2013-01-09 02:43:00,
2013-01-08 20:53:00,58.0,57.0,-100.00,East,82,4.0,11.0,98,0.00,,,1.03,0.000000,,2013-01-09 02:53:00,
2013-01-08 21:33:00,59.0,58.0,-100.00,ESE,102,7.0,11.0,97,0.00,,,1.03,0.000000,,2013-01-09 03:33:00,
2013-01-08 21:43:00,59.0,58.0,-100.00,ESE,102,7.0,11.0,97,0.00,,,1.03,0.000000,,2013-01-09 03:43:00,
2013-01-08 21:53:00,59.0,58.0,-100.00,ESE,102,7.0,11.0,97,0.00,,,1.03,0.000000,,2013-01-09 03:53:00,
2013-01-08 22:02:00,59.0,58.0,-100.00,ESE,102,7.0,11.0,97,0.00,,,1.03,0.000000,,2013-01-09 04:02:00,
2013-01-08 22:03:00,59.0,58.0,-100.00,East,100,7.0,11.0,97,0.01,,,1.04,0.000000,,2013-01-09 04:03:00,
2013-01-08 22:23:00,59.0,58.0,-100.00,East,100,7.0,11.0,97,0.01,,,1.04,0.000000,,2013-01-09 04:23:00,
2013-01-08 22:33:00,59.0,58.0,-100.00,East,100,7.0,11.0,97,0.01,,,1.04,0.000000,,2013-01-09 04:33:00,
2013-01-08 22:43:00,59.0,58.0,-100.00,East,100,7.0,11.0,97,0.01,,,1.04,0.000000,,2013-01-09 04:43:00,
2013-01-08 22:52:00,59.0,58.0,-100.00,East,100,7.0,11.0,97,0.01,,,1.04,0.000000,,2013-01-09 04:52:00,
2013-01-08 23:22:00,59.0,58.0,-100.00,East,93,6.0,11.0,98,0.00,,,1.04,0.000000,,2013-01-09 05:22:00,
2013-01-08 23:33:00,59.0,58.0,-100.00,East,93,6.0,11.0,98,0.00,,,1.04,0.000000,,2013-01-09 05:33:00,
2013-01-08 23:43:00,59.0,58.0,-100.00,East,93,6.0,11.0,98,0.00,,,1.04,0.000000,,2013-01-09 05:43:00,
2013-01-08 23:53:00,59.0,58.0,-100.00,East,93,6.0,11.0,98,0.00,,,1.04,0.000000,,2013-01-09 05:53:00,